Time;durP1;ratioP1;P1;durP2;ratioP2;P2;SDS_P1;SDS_P2;PMS_P1;PMS_P2;Temp;Humidity;BMP_temperature;BMP_pressure;BME280_temperature;BME280_humidity;BME280_pressure;Samples;Min_cycle;Max_cycle;Signal;HPM_P1;HPM_P2
2023/05/20 00:00:24;;;;;;;2.33;1.50;;;12.00;98.20;;;;;;10442898;28;20303;-76
2023/05/20 00:05:45;;;;;;;1.13;0.90;;;11.90;97.20;;;;;;10441740;28;20216;-76
2023/05/20 00:11:06;;;;;;;2.00;1.30;;;11.90;97.00;;;;;;10441959;28;20188;-76
2023/05/20 00:16:28;;;;;;;2.72;1.50;;;11.90;95.90;;;;;;10442487;28;20196;-76
2023/05/20 00:21:49;;;;;;;3.50;1.88;;;11.90;96.50;;;;;;10444107;28;20225;-76
2023/05/20 00:27:10;;;;;;;4.95;2.40;;;11.90;96.30;;;;;;10441223;28;20204;-76
2023/05/20 00:32:31;;;;;;;6.28;3.35;;;11.80;96.60;;;;;;10442157;28;20206;-77
2023/05/20 00:37:53;;;;;;;2.67;1.83;;;11.80;95.50;;;;;;10435911;28;20207;-76
2023/05/20 00:43:14;;;;;;;6.20;1.92;;;11.80;95.30;;;;;;10442682;28;20417;-76
2023/05/20 00:48:41;;;;;;;5.80;1.55;;;11.80;95.10;;;;;;10439239;28;20204;-76
2023/05/20 00:54:03;;;;;;;2.90;1.75;;;11.70;94.70;;;;;;10400274;28;20200;-76
2023/05/20 00:59:25;;;;;;;2.70;1.70;;;11.70;94.10;;;;;;10412697;28;20600;-76
2023/05/20 01:04:46;;;;;;;2.25;1.63;;;11.70;95.50;;;;;;10441479;28;20423;-76
2023/05/20 01:10:08;;;;;;;1.83;1.40;;;11.70;95.80;;;;;;10440556;28;20482;-76
2023/05/20 01:15:30;;;;;;;2.73;1.30;;;11.70;95.70;;;;;;10439389;28;20206;-76
2023/05/20 01:20:54;;;;;;;4.15;1.25;;;11.60;95.70;;;;;;10446478;28;20218;-76
2023/05/20 01:26:17;;;;;;;5.07;1.40;;;11.60;96.40;;;;;;10450753;28;20207;-76
2023/05/20 01:31:39;;;;;;;3.08;1.42;;;11.60;96.00;;;;;;10403676;28;20209;-76
2023/05/20 01:37:03;;;;;;;2.90;1.43;;;11.60;94.80;;;;;;10465273;28;20203;-76
2023/05/20 01:42:26;;;;;;;2.47;1.00;;;11.60;93.30;;;;;;10437169;28;20456;-76
2023/05/20 01:47:48;;;;;;;7.23;1.63;;;11.60;91.60;;;;;;10437226;28;20207;-76
2023/05/20 01:53:09;;;;;;;2.87;1.23;;;11.60;90.50;;;;;;10438027;28;20200;-75
2023/05/20 01:58:31;;;;;;;1.87;1.00;;;11.60;90.40;;;;;;10465785;28;20238;-76
2023/05/20 02:03:52;;;;;;;2.42;1.20;;;11.70;90.60;;;;;;10464805;28;20272;-75
2023/05/20 02:09:13;;;;;;;1.43;1.07;;;11.70;88.00;;;;;;10437339;28;20192;-75
2023/05/20 02:14:34;;;;;;;1.63;1.20;;;11.70;88.80;;;;;;10437579;28;20392;-76
2023/05/20 02:19:56;;;;;;;4.18;1.25;;;11.70;89.50;;;;;;10500682;28;20210;-76
2023/05/20 02:25:17;;;;;;;1.80;1.17;;;11.70;87.60;;;;;;10470565;28;20449;-76
2023/05/20 02:30:38;;;;;;;2.87;1.40;;;11.70;84.80;;;;;;10434856;28;20278;-76
2023/05/20 02:35:59;;;;;;;2.05;1.23;;;11.70;88.00;;;;;;10421918;28;20203;-76
2023/05/20 02:41:20;;;;;;;1.67;1.30;;;11.70;86.50;;;;;;10436770;28;20212;-75
2023/05/20 02:46:42;;;;;;;1.48;1.13;;;11.70;86.30;;;;;;10435821;28;20238;-76
2023/05/20 02:52:03;;;;;;;2.20;1.03;;;11.70;86.70;;;;;;10436070;28;20282;-76
2023/05/20 02:57:26;;;;;;;1.77;1.20;;;11.70;87.50;;;;;;10435480;28;20199;-75
2023/05/20 03:02:47;;;;;;;3.58;1.17;;;11.70;86.50;;;;;;10433944;28;20270;-76
2023/05/20 03:08:09;;;;;;;1.27;0.95;;;11.70;90.30;;;;;;10434935;28;20201;-75
2023/05/20 03:13:31;;;;;;;1.23;0.88;;;11.70;90.40;;;;;;10435928;28;20201;-76
2023/05/20 03:18:53;;;;;;;1.63;0.80;;;11.70;91.20;;;;;;10449911;28;20198;-76
2023/05/20 03:24:14;;;;;;;1.27;0.95;;;11.70;91.70;;;;;;10446460;28;20227;-76
2023/05/20 03:29:36;;;;;;;2.85;1.48;;;11.70;91.60;;;;;;10431568;28;20204;-76
2023/05/20 03:34:58;;;;;;;5.20;2.28;;;11.80;90.40;;;;;;10407244;28;20196;-76
2023/05/20 03:40:20;;;;;;;4.60;2.00;;;11.80;89.70;;;;;;10440656;28;20204;-76
2023/05/20 03:45:41;;;;;;;6.97;1.80;;;11.90;89.30;;;;;;10434431;28;20542;-76
2023/05/20 03:51:03;;;;;;;2.13;1.45;;;12.00;88.10;;;;;;10433328;28;20191;-76
2023/05/20 03:56:25;;;;;;;6.43;1.77;;;12.10;85.40;;;;;;10434090;28;20230;-76
2023/05/20 04:01:46;;;;;;;1.60;1.00;;;12.10;83.60;;;;;;10434395;28;20253;-76
2023/05/20 04:07:10;;;;;;;1.83;1.00;;;12.10;87.10;;;;;;10441639;28;20233;-76
2023/05/20 04:12:34;;;;;;;1.45;0.93;;;12.20;87.70;;;;;;10469114;28;20246;-76
2023/05/20 04:17:56;;;;;;;3.50;1.77;;;12.20;86.60;;;;;;10441311;28;20504;-76
2023/05/20 04:23:17;;;;;;;3.50;1.55;;;12.20;87.30;;;;;;10440163;28;20588;-76
2023/05/20 04:28:40;;;;;;;3.65;1.00;;;12.20;85.60;;;;;;10440916;28;20206;-77
2023/05/20 04:34:01;;;;;;;1.48;1.05;;;12.30;84.70;;;;;;10401052;28;20452;-76
2023/05/20 04:39:23;;;;;;;1.20;0.95;;;12.40;82.80;;;;;;10440605;28;20215;-76
2023/05/20 04:44:46;;;;;;;1.30;1.02;;;12.40;81.70;;;;;;10440404;28;20450;-76
2023/05/20 04:50:12;;;;;;;1.50;1.17;;;12.50;79.20;;;;;;10439846;28;20202;-76
2023/05/20 04:55:36;;;;;;;1.63;1.02;;;12.60;78.80;;;;;;10438682;28;20546;-76
2023/05/20 05:00:57;;;;;;;1.67;1.30;;;12.70;78.80;;;;;;10439679;28;20233;-76
2023/05/20 05:06:19;;;;;;;1.75;1.17;;;12.80;75.70;;;;;;10438729;28;20217;-76
2023/05/20 05:11:40;;;;;;;1.95;1.30;;;12.90;74.00;;;;;;10439424;28;20190;-75
2023/05/20 05:17:01;;;;;;;3.00;1.42;;;13.10;75.60;;;;;;10469589;28;20199;-76
2023/05/20 05:22:22;;;;;;;6.90;2.35;;;13.20;69.10;;;;;;10468102;28;20232;-76
2023/05/20 05:27:44;;;;;;;3.60;2.00;;;13.30;67.30;;;;;;10438310;28;20239;-76
2023/05/20 05:33:05;;;;;;;2.10;1.63;;;13.40;68.80;;;;;;10408599;28;20531;-76
2023/05/20 05:38:26;;;;;;;5.57;1.85;;;13.50;67.00;;;;;;10432211;28;20227;-76
2023/05/20 05:43:48;;;;;;;4.80;1.88;;;13.70;62.60;;;;;;10438027;28;20578;-75
2023/05/20 05:49:09;;;;;;;4.45;2.20;;;13.80;57.90;;;;;;10437350;28;20189;-76
2023/05/20 05:54:30;;;;;;;7.18;2.13;;;14.00;59.60;;;;;;10437568;28;20205;-76
2023/05/20 05:59:52;;;;;;;5.43;1.92;;;14.10;52.70;;;;;;10436733;28;20538;-76
2023/05/20 06:05:15;;;;;;;4.05;2.03;;;14.10;54.30;;;;;;10436553;28;20227;-75
2023/05/20 06:10:38;;;;;;;4.78;1.95;;;14.10;57.50;;;;;;10464047;28;20208;-76
2023/05/20 06:15:59;;;;;;;8.02;2.22;;;14.30;61.40;;;;;;10422170;28;20198;-76
2023/05/20 06:21:20;;;;;;;4.70;1.55;;;14.60;54.20;;;;;;10442250;28;20209;-76
2023/05/20 06:26:41;;;;;;;4.07;1.73;;;14.80;51.80;;;;;;10458571;28;20409;-75
2023/05/20 06:32:02;;;;;;;5.40;2.00;;;15.20;48.40;;;;;;10413584;28;20207;-76
2023/05/20 06:37:24;;;;;;;4.65;2.17;;;15.50;46.20;;;;;;10428744;28;20242;-75
2023/05/20 06:42:46;;;;;;;3.30;2.03;;;15.70;46.40;;;;;;10435548;28;20221;-76
2023/05/20 06:48:07;;;;;;;5.72;2.47;;;15.90;42.00;;;;;;10435608;28;20678;-76
2023/05/20 06:53:28;;;;;;;3.72;2.15;;;16.30;39.70;;;;;;10434396;28;20524;-76
2023/05/20 06:58:50;;;;;;;4.57;2.05;;;16.60;33.10;;;;;;10435092;28;20235;-77
2023/05/20 07:04:12;;;;;;;6.03;2.72;;;17.20;28.20;;;;;;10435089;28;20260;-76
2023/05/20 07:09:33;;;;;;;3.85;2.17;;;17.10;26.40;;;;;;10420767;28;20387;-77
2023/05/20 07:14:55;;;;;;;3.63;2.05;;;16.50;26.70;;;;;;10435799;28;20418;-76
2023/05/20 07:20:16;;;;;;;5.25;2.63;;;16.30;27.90;;;;;;10436512;28;20239;-75
2023/05/20 07:25:38;;;;;;;7.68;2.60;;;16.20;26.80;;;;;;10466248;28;20242;-76
2023/05/20 07:30:59;;;;;;;9.48;2.50;;;16.20;28.60;;;;;;10433904;28;20200;-75
2023/05/20 07:36:22;;;;;;;3.47;2.05;;;16.10;29.10;;;;;;10435567;28;20499;-76
2023/05/20 07:41:45;;;;;;;8.27;3.80;;;15.90;30.20;;;;;;10442675;28;20211;-76
2023/05/20 07:47:06;;;;;;;6.05;3.40;;;15.80;33.60;;;;;;10442638;28;20196;-75
2023/05/20 07:52:27;;;;;;;3.38;2.40;;;15.90;37.30;;;;;;10441365;28;20285;-76
2023/05/20 07:57:48;;;;;;;8.00;2.83;;;15.90;40.90;;;;;;10441767;28;20195;-77
2023/05/20 08:03:10;;;;;;;6.80;4.03;;;15.90;45.10;;;;;;10441778;28;20225;-76
2023/05/20 08:08:42;;;;;;;5.05;2.78;;;15.90;46.70;;;;;;10438519;28;20207;-76
2023/05/20 08:14:11;;;;;;;4.90;2.55;;;16.20;47.40;;;;;;10441389;28;20421;-76
2023/05/20 08:19:36;;;;;;;6.18;2.70;;;16.40;45.40;;;;;;10441542;28;20191;-76
2023/05/20 08:24:58;;;;;;;5.15;3.50;;;16.60;44.60;;;;;;10440043;28;20542;-76
2023/05/20 08:30:20;;;;;;;6.72;2.85;;;17.00;44.80;;;;;;10440946;28;20204;-76
2023/05/20 08:35:41;;;;;;;6.95;2.63;;;17.50;38.40;;;;;;10425531;28;20487;-76
2023/05/20 08:41:02;;;;;;;7.88;2.40;;;17.80;35.50;;;;;;10441504;28;20188;-76
2023/05/20 08:46:24;;;;;;;9.18;3.83;;;17.80;35.60;;;;;;10440102;28;20220;-76
2023/05/20 08:51:48;;;;;;;10.43;5.85;;;17.90;35.80;;;;;;10437979;28;20208;-76
2023/05/20 08:57:12;;;;;;;7.80;3.35;;;18.00;35.60;;;;;;10439796;28;20212;-77
2023/05/20 09:02:37;;;;;;;5.53;2.38;;;18.20;35.10;;;;;;10440547;28;20243;-76
2023/05/20 09:08:08;;;;;;;4.07;1.98;;;18.20;31.10;;;;;;10439355;28;20259;-76
2023/05/20 09:13:33;;;;;;;9.18;3.47;;;18.00;32.30;;;;;;10440220;28;20216;-76
2023/05/20 09:18:57;;;;;;;4.72;2.47;;;17.90;33.40;;;;;;10440184;28;20216;-77
2023/05/20 09:24:27;;;;;;;6.25;2.70;;;18.10;30.40;;;;;;10449896;28;20220;-76
2023/05/20 09:29:49;;;;;;;8.98;5.93;;;18.00;29.40;;;;;;10436238;28;20519;-76
2023/05/20 09:35:14;;;;;;;7.30;5.13;;;18.10;29.00;;;;;;10454878;28;20219;-77
2023/05/20 09:40:39;;;;;;;7.07;2.50;;;18.30;28.80;;;;;;10438520;28;20454;-77
2023/05/20 09:46:01;;;;;;;3.58;2.00;;;;;;;;;;10439057;28;20410;-76
2023/05/20 09:51:23;;;;;;;5.07;3.10;;;;;;;;;;10422463;28;20246;-76
2023/05/20 09:56:46;;;;;;;9.00;3.08;;;21.30;45.20;;;;;;10438095;28;20200;-76
2023/05/20 10:02:08;;;;;;;10.00;2.67;;;;;;;;;;10437102;28;20232;-77
2023/05/20 10:07:36;;;;;;;6.93;2.75;;;;;;;;;;10436978;28;20212;-76
2023/05/20 10:13:25;;;;;;;5.80;2.85;;;21.90;36.80;;;;;;10436874;28;20272;-77
2023/05/20 10:18:55;;;;;;;6.75;2.35;;;21.20;23.00;;;;;;10437729;28;20191;-77
2023/05/20 10:24:27;;;;;;;4.63;2.33;;;20.60;21.70;;;;;;10461856;28;20219;-77
2023/05/20 10:29:54;;;;;;;5.72;2.47;;;20.50;37.10;;;;;;10396600;28;20197;-76
2023/05/20 10:35:21;;;;;;;5.72;2.30;;;20.10;35.60;;;;;;10395986;28;20193;-76
2023/05/20 10:40:46;;;;;;;2.92;2.00;;;19.70;36.10;;;;;;10434972;28;20200;-76
2023/05/20 10:46:17;;;;;;;4.88;2.00;;;19.50;35.80;;;;;;10436791;28;20266;-76
2023/05/20 10:51:46;;;;;;;2.10;1.90;;;19.90;34.20;;;;;;10435376;28;20203;-76
2023/05/20 10:57:10;;;;;;;2.38;1.70;;;20.70;35.20;;;;;;10436572;28;20234;-76
2023/05/20 11:02:32;;;;;;;7.22;1.80;;;20.80;32.20;;;;;;10436012;28;20282;-76
2023/05/20 11:08:06;;;;;;;5.25;2.13;;;20.70;32.40;;;;;;10434994;28;20200;-77
2023/05/20 11:13:30;;;;;;;5.63;2.33;;;21.00;31.20;;;;;;10435478;28;20203;-77
2023/05/20 11:18:51;;;;;;;4.28;2.05;;;21.30;30.60;;;;;;10435896;28;20188;-77
2023/05/20 11:24:13;;;;;;;3.55;1.70;;;22.10;28.50;;;;;;10463398;28;20246;-76
2023/05/20 11:29:34;;;;;;;6.20;2.58;;;22.90;28.00;;;;;;10433939;28;20192;-76
2023/05/20 11:34:54;;;;;;;2.90;1.83;;;22.90;25.50;;;;;;10394544;28;20276;-76
2023/05/20 11:47:09;;;;;;;2.80;1.38;;;23.10;24.90;;;;;;10434057;28;20219;-75
2023/05/20 11:52:33;;;;;;;3.28;1.80;;;23.30;24.70;;;;;;10432967;28;20219;-76
2023/05/20 11:57:55;;;;;;;3.63;1.65;;;23.40;24.20;;;;;;10435461;28;20443;-76
2023/05/20 12:03:17;;;;;;;2.17;1.80;;;23.30;24.20;;;;;;10434747;28;20451;-76
2023/05/20 12:08:38;;;;;;;4.22;1.90;;;23.30;15.10;;;;;;10434494;28;20204;-75
2023/05/20 12:14:00;;;;;;;6.05;2.10;;;23.30;14.90;;;;;;10420224;28;20201;-76
2023/05/20 12:19:22;;;;;;;2.10;1.50;;;23.30;15.60;;;;;;10434667;28;20230;-76
2023/05/20 12:24:43;;;;;;;4.10;1.80;;;23.60;20.30;;;;;;10430117;28;20224;-76
2023/05/20 12:30:04;;;;;;;9.30;2.03;;;23.90;26.00;;;;;;10435985;28;20247;-76
2023/05/20 12:35:36;;;;;;;6.88;3.70;;;23.60;19.00;;;;;;10400578;28;20203;-76
2023/05/20 12:40:57;;;;;;;3.20;1.65;;;23.60;20.70;;;;;;10440158;28;20224;-76
2023/05/20 12:46:18;;;;;;;3.22;1.88;;;23.00;18.30;;;;;;10440018;28;20546;-76
2023/05/20 12:51:39;;;;;;;4.07;2.03;;;22.80;17.60;;;;;;10439645;28;20188;-75
2023/05/20 12:57:01;;;;;;;4.43;2.28;;;22.90;24.60;;;;;;10441077;28;20206;-76
2023/05/20 13:02:23;;;;;;;2.70;2.00;;;23.00;24.20;;;;;;10453327;28;20244;-76
2023/05/20 13:07:44;;;;;;;4.05;2.08;;;23.10;24.00;;;;;;10439819;28;20227;-76
2023/05/20 13:13:04;;;;;;;2.83;1.60;;;23.10;24.20;;;;;;10440300;28;20188;-77
2023/05/20 13:18:25;;;;;;;4.00;1.75;;;22.90;23.80;;;;;;10440075;28;20192;-77
2023/05/20 13:23:46;;;;;;;2.70;1.95;;;22.90;25.00;;;;;;10457104;28;20215;-77
2023/05/20 13:29:07;;;;;;;3.58;2.53;;;22.90;26.90;;;;;;10440731;28;20200;-79
2023/05/20 13:34:29;;;;;;;7.50;3.15;;;23.00;26.60;;;;;;10398753;28;20247;-77
2023/05/20 13:39:50;;;;;;;8.65;4.88;;;23.30;26.20;;;;;;10423877;28;20208;-75
2023/05/20 13:45:11;;;;;;;7.22;2.33;;;23.30;26.80;;;;;;10438927;28;20514;-74
2023/05/20 13:50:32;;;;;;;8.48;2.50;;;22.70;27.20;;;;;;10437658;28;20246;-75
2023/05/20 13:55:53;;;;;;;4.47;2.22;;;22.10;26.50;;;;;;10437916;28;20212;-75
2023/05/20 14:01:15;;;;;;;8.25;2.33;;;21.70;26.40;;;;;;10439032;28;20540;-77
2023/05/20 14:06:36;;;;;;;3.88;2.10;;;21.20;26.90;;;;;;10437710;28;20212;-75
2023/05/20 14:11:56;;;;;;;3.30;1.85;;;21.00;27.70;;;;;;10397498;28;20197;-75
2023/05/20 14:17:17;;;;;;;4.75;2.30;;;20.90;27.60;;;;;;10397051;28;20219;-76
2023/05/20 14:22:38;;;;;;;4.10;1.83;;;21.00;28.30;;;;;;10420448;28;20215;-75
2023/05/20 14:27:59;;;;;;;4.50;1.80;;;21.20;27.60;;;;;;10447284;28;20238;-75
2023/05/20 14:33:20;;;;;;;3.45;1.95;;;21.10;27.30;;;;;;10403970;28;20193;-75
2023/05/20 14:38:41;;;;;;;4.63;2.97;;;20.90;27.80;;;;;;10410882;28;20196;-76
2023/05/20 14:44:03;;;;;;;4.65;2.63;;;20.80;29.00;;;;;;10408967;28;20236;-76
2023/05/20 14:49:24;;;;;;;7.43;2.30;;;20.50;29.40;;;;;;10395761;28;20189;-75
2023/05/20 14:54:45;;;;;;;3.45;2.20;;;20.50;31.10;;;;;;10430290;28;20210;-76
2023/05/20 15:00:07;;;;;;;2.78;2.35;;;20.30;34.00;;;;;;10436561;28;20232;-75
2023/05/20 15:05:28;;;;;;;6.65;2.30;;;20.50;34.90;;;;;;10434122;28;20216;-76
2023/05/20 15:10:49;;;;;;;3.03;2.25;;;20.20;35.80;;;;;;10436497;28;20192;-76
2023/05/20 15:16:11;;;;;;;6.68;3.00;;;20.20;36.80;;;;;;10436585;28;20200;-76
2023/05/20 15:21:31;;;;;;;4.85;2.63;;;20.20;37.60;;;;;;10461666;28;20478;-76
2023/05/20 15:26:53;;;;;;;6.25;2.95;;;20.20;38.50;;;;;;10457404;28;20226;-75
2023/05/20 15:32:15;;;;;;;4.32;2.83;;;20.20;39.30;;;;;;10411264;28;20204;-76
2023/05/20 15:37:36;;;;;;;6.43;2.80;;;20.20;40.90;;;;;;10434752;28;20534;-76
2023/05/20 15:42:59;;;;;;;4.90;2.67;;;20.20;42.30;;;;;;10434709;28;20232;-77
2023/05/20 15:48:22;;;;;;;3.30;2.58;;;20.10;99.90;;;;;;10435063;28;20189;-76
2023/05/20 15:53:44;;;;;;;3.50;2.53;;;20.00;99.90;;;;;;10394655;28;20193;-76
2023/05/20 15:59:05;;;;;;;9.40;2.95;;;20.00;1.00;;;;;;10396010;28;20248;-75
2023/05/20 16:04:26;;;;;;;4.88;2.50;;;20.00;1.00;;;;;;10414178;28;20228;-76
2023/05/20 16:09:48;;;;;;;6.95;3.05;;;;;;;;;;10443073;28;20203;-76
2023/05/20 16:15:10;;;;;;;5.43;3.30;;;;;;;;;;10442848;28;20200;-76
2023/05/20 16:20:31;;;;;;;9.65;3.83;;;;;;;;;;10432987;28;20298;-75
2023/05/20 16:25:52;;;;;;;4.90;3.00;;;;;;;;;;10441003;28;20224;-76
2023/05/20 16:31:15;;;;;;;4.38;3.05;;;;;;;;;;10439379;28;20566;-75
2023/05/20 16:36:36;;;;;;;9.85;3.80;;;;;;;;;;10414097;28;20489;-76
2023/05/20 16:41:58;;;;;;;5.95;2.83;;;;;;;;;;10413840;28;20524;-76
2023/05/20 16:47:19;;;;;;;5.00;2.80;;;;;;;;;;10422286;28;20372;-75
2023/05/20 16:52:41;;;;;;;5.72;2.72;;;;;;;;;;10440625;28;20193;-75
2023/05/20 16:58:03;;;;;;;3.75;2.83;;;;;;;;;;10439335;28;20251;-76
2023/05/20 17:03:55;;;;;;;6.05;3.13;;;;;;;;;;10399992;28;20291;-75
2023/05/20 17:09:16;;;;;;;4.63;2.50;;;;;;;;;;10417619;28;20580;-76
2023/05/20 17:14:38;;;;;;;3.40;2.33;;;;;;;;;;10459879;28;20230;-76
2023/05/20 17:20:00;;;;;;;4.90;3.20;;;;;;;;;;10438406;28;20207;-75
2023/05/20 17:25:21;;;;;;;3.90;2.80;;;;;;;;;;10438501;28;20224;-76
2023/05/20 17:30:42;;;;;;;4.20;3.08;;;19.30;1.00;;;;;;10426491;28;20201;-75
2023/05/20 17:36:04;;;;;;;5.70;3.08;;;19.20;1.00;;;;;;10398686;28;20251;-76
2023/05/20 17:41:26;;;;;;;3.97;3.17;;;19.00;1.00;;;;;;10426003;28;20251;-75
2023/05/20 17:47:24;;;;;;;6.18;3.80;;;18.90;1.00;;;;;;10439342;28;20248;-76
2023/05/20 17:52:45;;;;;;;5.18;3.92;;;18.80;1.00;;;;;;10437849;28;20201;-76
2023/05/20 17:58:06;;;;;;;6.03;3.97;;;18.70;1.00;;;;;;10437973;28;20235;-75
2023/05/20 18:03:27;;;;;;;7.10;3.70;;;18.60;1.00;;;;;;10438466;28;20408;-75
2023/05/20 18:08:48;;;;;;;6.88;4.20;;;18.50;1.00;;;;;;10437540;28;20188;-75
2023/05/20 18:14:09;;;;;;;7.85;5.43;;;18.30;1.00;;;;;;10461799;28;20486;-75
2023/05/20 18:19:32;;;;;;;11.45;6.70;;;18.20;1.00;;;;;;10437074;28;20368;-75
2023/05/20 18:24:53;;;;;;;7.32;5.05;;;18.20;1.00;;;;;;10421963;28;20220;-75
2023/05/20 18:30:15;;;;;;;4.60;3.88;;;18.00;1.00;;;;;;10416775;28;20208;-75
2023/05/20 18:35:37;;;;;;;8.85;5.80;;;17.90;1.00;;;;;;10409328;28;20222;-74
2023/05/20 18:40:59;;;;;;;6.22;5.00;;;17.80;1.00;;;;;;10435247;28;20197;-75
2023/05/20 18:46:19;;;;;;;6.10;5.32;;;17.60;1.00;;;;;;10435984;28;20223;-75
2023/05/20 18:51:40;;;;;;;5.75;4.47;;;17.50;1.00;;;;;;10436768;28;20219;-74
2023/05/20 18:57:06;;;;;;;6.50;4.43;;;17.50;1.00;;;;;;10435957;28;20515;-75
2023/05/20 19:02:27;;;;;;;9.27;4.40;;;17.30;43.00;;;;;;10435216;28;20247;-75
2023/05/20 19:07:48;;;;;;;5.55;4.40;;;17.30;40.80;;;;;;10435702;28;20234;-75
2023/05/20 19:13:09;;;;;;;7.25;5.38;;;17.20;99.90;;;;;;10436206;28;20426;-75
2023/05/20 19:18:30;;;;;;;7.32;5.45;;;17.10;99.90;;;;;;10453511;28;20200;-75
2023/05/20 19:23:51;;;;;;;9.50;5.95;;;17.00;99.90;;;;;;10477420;28;20222;-75
2023/05/20 19:29:13;;;;;;;7.97;4.72;;;16.90;99.90;;;;;;10436654;28;20246;-74
2023/05/20 19:34:35;;;;;;;7.72;5.32;;;16.80;99.90;;;;;;10403548;28;20532;-75
2023/05/20 19:39:56;;;;;;;10.05;5.75;;;16.70;99.90;;;;;;10442254;28;20202;-74
2023/05/20 19:45:17;;;;;;;8.77;5.63;;;16.60;99.90;;;;;;10443044;28;20232;-74
2023/05/20 19:50:38;;;;;;;8.38;4.78;;;16.50;99.90;;;;;;10443637;28;20196;-75
2023/05/20 19:55:58;;;;;;;6.95;4.88;;;16.50;99.90;;;;;;10442811;28;20279;-75
2023/05/20 20:01:20;;;;;;;7.60;5.43;;;16.30;99.90;;;;;;10442933;28;20445;-74
2023/05/20 20:06:41;;;;;;;8.20;5.40;;;16.30;99.90;;;;;;10441352;28;20228;-75
2023/05/20 20:12:02;;;;;;;8.88;5.57;;;16.20;99.90;;;;;;10427995;28;20199;-75
2023/05/20 20:17:23;;;;;;;9.15;5.80;;;16.20;99.90;;;;;;10462874;28;20199;-74
2023/05/20 20:22:44;;;;;;;8.65;5.07;;;16.10;99.90;;;;;;10484097;28;20199;-74
2023/05/20 20:28:08;;;;;;;7.10;4.30;;;16.00;99.90;;;;;;10425414;28;20556;-75
2023/05/20 20:33:28;;;;;;;7.25;4.45;;;15.90;99.90;;;;;;10401605;28;20204;-74
2023/05/20 20:38:50;;;;;;;5.38;4.05;;;15.90;99.90;;;;;;10440070;28;20298;-76
2023/05/20 20:44:19;;;;;;;7.63;4.57;;;15.80;1.00;;;;;;10440363;28;20227;-76
2023/05/20 20:49:41;;;;;;;8.98;5.38;;;15.70;1.00;;;;;;10438121;28;20202;-76
2023/05/20 20:55:02;;;;;;;8.10;5.18;;;15.70;1.00;;;;;;10440854;28;20194;-76
2023/05/20 21:00:24;;;;;;;7.55;5.05;;;15.60;1.00;;;;;;10399840;28;20418;-77
2023/05/20 21:05:44;;;;;;;6.50;4.85;;;15.60;1.00;;;;;;10408675;28;20227;-77
2023/05/20 21:11:05;;;;;;;7.35;4.82;;;15.60;1.00;;;;;;10440200;28;20224;-76
2023/05/20 21:16:27;;;;;;;5.43;4.07;;;15.60;1.00;;;;;;10452043;28;20496;-77
2023/05/20 21:21:48;;;;;;;6.78;4.72;;;15.50;1.00;;;;;;10438870;28;20275;-77
2023/05/20 21:27:09;;;;;;;6.38;4.60;;;15.40;1.00;;;;;;10455643;28;20233;-76
2023/05/20 21:32:30;;;;;;;6.38;3.80;;;15.40;1.00;;;;;;10449664;28;20202;-77
2023/05/20 21:37:51;;;;;;;5.57;4.25;;;15.40;73.50;;;;;;10439569;28;20195;-77
2023/05/20 21:43:12;;;;;;;5.60;3.97;;;15.40;98.90;;;;;;10437422;28;20445;-73
2023/05/20 21:48:33;;;;;;;6.32;4.40;;;15.30;99.50;;;;;;10439437;28;20192;-73
2023/05/20 21:53:54;;;;;;;6.68;4.72;;;15.30;99.70;;;;;;10438037;28;20230;-74
2023/05/20 21:59:15;;;;;;;6.95;4.70;;;15.30;99.90;;;;;;10437913;28;20227;-75
2023/05/20 22:04:36;;;;;;;5.47;4.40;;;15.20;99.90;;;;;;10438797;28;20305;-74
2023/05/20 22:09:58;;;;;;;6.30;4.63;;;15.20;99.90;;;;;;10440605;28;20279;-77
2023/05/20 22:15:20;;;;;;;6.28;4.63;;;15.10;99.90;;;;;;10438029;28;20217;-76
2023/05/20 22:20:41;;;;;;;5.50;3.85;;;15.10;99.90;;;;;;10437192;28;20298;-76
2023/05/20 22:26:03;;;;;;;7.93;4.88;;;15.10;99.90;;;;;;10436630;28;20235;-75
2023/05/20 22:31:24;;;;;;;5.53;4.57;;;15.10;99.90;;;;;;10435703;28;20245;-74
2023/05/20 22:36:47;;;;;;;6.70;4.47;;;15.00;99.90;;;;;;10437469;28;20360;-74
2023/05/20 22:42:09;;;;;;;5.93;4.95;;;15.00;99.90;;;;;;10434252;28;20215;-76
2023/05/20 22:47:30;;;;;;;6.72;4.90;;;15.00;99.90;;;;;;10436434;28;20579;-76
2023/05/20 22:52:51;;;;;;;7.35;4.68;;;15.10;99.90;;;;;;10458232;28;20206;-76
2023/05/20 22:58:12;;;;;;;8.60;5.07;;;15.10;99.90;;;;;;10461692;28;20309;-76
2023/05/20 23:03:33;;;;;;;10.95;5.28;;;15.20;99.90;;;;;;10435980;28;20206;-77
2023/05/20 23:08:54;;;;;;;6.10;4.82;;;15.20;99.90;;;;;;10420483;28;20210;-76
2023/05/20 23:14:16;;;;;;;8.15;4.90;;;15.20;99.90;;;;;;10427681;28;20434;-77
2023/05/20 23:19:37;;;;;;;8.98;4.95;;;15.20;99.90;;;;;;10400832;28;20198;-75
2023/05/20 23:24:58;;;;;;;7.45;5.40;;;15.20;99.90;;;;;;10436389;28;20290;-77
2023/05/20 23:30:19;;;;;;;6.30;4.47;;;15.20;99.90;;;;;;10435560;28;20210;-76
2023/05/20 23:35:42;;;;;;;6.43;4.72;;;15.20;99.90;;;;;;10435343;28;20269;-76
2023/05/20 23:41:04;;;;;;;7.47;4.93;;;15.20;99.90;;;;;;10433853;28;20229;-76
2023/05/20 23:46:25;;;;;;;6.82;4.82;;;15.20;99.90;;;;;;10435743;28;20216;-76
2023/05/20 23:51:46;;;;;;;7.80;5.00;;;15.20;99.90;;;;;;10419992;28;20314;-76
2023/05/20 23:57:10;;;;;;;6.80;4.80;;;15.20;99.90;;;;;;10435656;28;20194;-77
